sensor_id;sensor_type;location;lat;lon;timestamp;P1;durP1;ratioP1;P2;durP2;ratioP2
55784;SDS011;41709;52.536;5.688;2023-04-08T00:00:34;11.73;;;9.30;;
55784;SDS011;41709;52.536;5.688;2023-04-08T00:03:00;14.48;;;9.82;;
55784;SDS011;41709;52.536;5.688;2023-04-08T00:05:26;12.27;;;10.23;;
55784;SDS011;41709;52.536;5.688;2023-04-08T00:07:52;15.15;;;10.43;;
55784;SDS011;41709;52.536;5.688;2023-04-08T00:10:17;13.57;;;9.75;;
55784;SDS011;41709;52.536;5.688;2023-04-08T00:12:43;12.77;;;10.07;;
55784;SDS011;41709;52.536;5.688;2023-04-08T00:15:09;14.30;;;10.35;;
55784;SDS011;41709;52.536;5.688;2023-04-08T00:17:35;13.35;;;10.00;;
55784;SDS011;41709;52.536;5.688;2023-04-08T00:20:00;12.95;;;10.15;;
55784;SDS011;41709;52.536;5.688;2023-04-08T00:22:26;12.90;;;9.85;;
55784;SDS011;41709;52.536;5.688;2023-04-08T00:24:52;13.40;;;10.63;;
55784;SDS011;41709;52.536;5.688;2023-04-08T00:27:17;14.18;;;10.88;;
55784;SDS011;41709;52.536;5.688;2023-04-08T00:29:43;13.63;;;9.80;;
55784;SDS011;41709;52.536;5.688;2023-04-08T00:32:08;13.98;;;10.40;;
55784;SDS011;41709;52.536;5.688;2023-04-08T00:34:34;16.02;;;11.23;;
55784;SDS011;41709;52.536;5.688;2023-04-08T00:37:01;14.27;;;10.65;;
55784;SDS011;41709;52.536;5.688;2023-04-08T00:39:27;14.88;;;10.45;;
55784;SDS011;41709;52.536;5.688;2023-04-08T00:41:52;14.43;;;10.30;;
55784;SDS011;41709;52.536;5.688;2023-04-08T00:44:18;14.45;;;10.48;;
55784;SDS011;41709;52.536;5.688;2023-04-08T00:46:43;13.85;;;10.38;;
55784;SDS011;41709;52.536;5.688;2023-04-08T00:49:09;13.50;;;10.80;;
55784;SDS011;41709;52.536;5.688;2023-04-08T00:51:35;16.15;;;11.93;;
55784;SDS011;41709;52.536;5.688;2023-04-08T00:54:01;11.90;;;10.15;;
55784;SDS011;41709;52.536;5.688;2023-04-08T00:56:29;15.23;;;10.90;;
55784;SDS011;41709;52.536;5.688;2023-04-08T00:58:56;14.93;;;10.98;;
55784;SDS011;41709;52.536;5.688;2023-04-08T01:01:33;14.57;;;10.15;;
55784;SDS011;41709;52.536;5.688;2023-04-08T01:09:32;12.65;;;10.25;;
55784;SDS011;41709;52.536;5.688;2023-04-08T01:12:03;13.32;;;11.02;;
55784;SDS011;41709;52.536;5.688;2023-04-08T01:14:31;14.57;;;10.35;;
55784;SDS011;41709;52.536;5.688;2023-04-08T01:17:02;13.32;;;9.68;;
55784;SDS011;41709;52.536;5.688;2023-04-08T01:19:31;11.90;;;9.32;;
55784;SDS011;41709;52.536;5.688;2023-04-08T01:22:04;16.58;;;10.98;;
55784;SDS011;41709;52.536;5.688;2023-04-08T01:24:45;12.18;;;9.77;;
55784;SDS011;41709;52.536;5.688;2023-04-08T01:27:12;17.35;;;10.45;;
55784;SDS011;41709;52.536;5.688;2023-04-08T01:29:40;14.63;;;9.70;;
55784;SDS011;41709;52.536;5.688;2023-04-08T01:32:07;13.15;;;9.82;;
55784;SDS011;41709;52.536;5.688;2023-04-08T01:34:33;13.80;;;10.32;;
55784;SDS011;41709;52.536;5.688;2023-04-08T01:36:59;12.98;;;9.75;;
55784;SDS011;41709;52.536;5.688;2023-04-08T01:39:26;14.23;;;9.85;;
55784;SDS011;41709;52.536;5.688;2023-04-08T01:41:53;13.45;;;10.20;;
55784;SDS011;41709;52.536;5.688;2023-04-08T01:44:21;13.73;;;9.65;;
55784;SDS011;41709;52.536;5.688;2023-04-08T01:46:48;13.07;;;9.68;;
55784;SDS011;41709;52.536;5.688;2023-04-08T01:49:14;13.63;;;9.55;;
55784;SDS011;41709;52.536;5.688;2023-04-08T01:51:41;13.45;;;9.30;;
55784;SDS011;41709;52.536;5.688;2023-04-08T01:54:08;13.68;;;9.43;;
55784;SDS011;41709;52.536;5.688;2023-04-08T01:56:35;13.63;;;9.57;;
55784;SDS011;41709;52.536;5.688;2023-04-08T01:59:05;11.35;;;8.98;;
55784;SDS011;41709;52.536;5.688;2023-04-08T02:01:35;14.55;;;9.52;;
55784;SDS011;41709;52.536;5.688;2023-04-08T02:04:01;12.43;;;9.68;;
55784;SDS011;41709;52.536;5.688;2023-04-08T02:06:28;12.55;;;9.30;;
55784;SDS011;41709;52.536;5.688;2023-04-08T02:08:55;12.90;;;8.55;;
55784;SDS011;41709;52.536;5.688;2023-04-08T02:11:20;14.55;;;10.23;;
55784;SDS011;41709;52.536;5.688;2023-04-08T02:13:46;12.38;;;9.50;;
55784;SDS011;41709;52.536;5.688;2023-04-08T02:16:22;16.98;;;10.43;;
55784;SDS011;41709;52.536;5.688;2023-04-08T02:18:59;13.77;;;10.15;;
55784;SDS011;41709;52.536;5.688;2023-04-08T02:21:42;14.50;;;9.95;;
55784;SDS011;41709;52.536;5.688;2023-04-08T02:24:11;13.85;;;8.88;;
55784;SDS011;41709;52.536;5.688;2023-04-08T02:26:38;11.98;;;9.45;;
55784;SDS011;41709;52.536;5.688;2023-04-08T02:29:06;12.05;;;8.63;;
55784;SDS011;41709;52.536;5.688;2023-04-08T02:31:39;12.70;;;9.40;;
55784;SDS011;41709;52.536;5.688;2023-04-08T02:34:07;12.15;;;9.43;;
55784;SDS011;41709;52.536;5.688;2023-04-08T02:36:34;14.13;;;9.45;;
55784;SDS011;41709;52.536;5.688;2023-04-08T02:39:00;13.27;;;9.27;;
55784;SDS011;41709;52.536;5.688;2023-04-08T02:41:29;11.48;;;8.85;;
55784;SDS011;41709;52.536;5.688;2023-04-08T02:46:21;10.88;;;8.55;;
55784;SDS011;41709;52.536;5.688;2023-04-08T02:48:46;11.98;;;8.35;;
55784;SDS011;41709;52.536;5.688;2023-04-08T02:51:12;12.52;;;8.80;;
55784;SDS011;41709;52.536;5.688;2023-04-08T02:53:37;12.40;;;8.88;;
55784;SDS011;41709;52.536;5.688;2023-04-08T02:56:03;12.38;;;8.18;;
55784;SDS011;41709;52.536;5.688;2023-04-08T02:58:29;13.13;;;9.68;;
55784;SDS011;41709;52.536;5.688;2023-04-08T03:00:55;13.07;;;8.55;;
55784;SDS011;41709;52.536;5.688;2023-04-08T03:03:20;12.32;;;9.20;;
55784;SDS011;41709;52.536;5.688;2023-04-08T03:05:53;12.10;;;8.02;;
55784;SDS011;41709;52.536;5.688;2023-04-08T03:08:19;11.93;;;8.30;;
55784;SDS011;41709;52.536;5.688;2023-04-08T03:10:45;11.70;;;8.27;;
55784;SDS011;41709;52.536;5.688;2023-04-08T03:13:10;10.63;;;8.32;;
55784;SDS011;41709;52.536;5.688;2023-04-08T03:15:36;13.68;;;7.93;;
55784;SDS011;41709;52.536;5.688;2023-04-08T03:18:02;11.77;;;7.95;;
55784;SDS011;41709;52.536;5.688;2023-04-08T03:20:27;12.57;;;8.52;;
55784;SDS011;41709;52.536;5.688;2023-04-08T03:22:53;11.32;;;7.97;;
55784;SDS011;41709;52.536;5.688;2023-04-08T03:25:18;13.55;;;8.30;;
55784;SDS011;41709;52.536;5.688;2023-04-08T03:27:44;12.10;;;8.32;;
55784;SDS011;41709;52.536;5.688;2023-04-08T03:30:10;14.93;;;7.90;;
55784;SDS011;41709;52.536;5.688;2023-04-08T03:32:35;12.95;;;8.07;;
55784;SDS011;41709;52.536;5.688;2023-04-08T03:35:01;11.70;;;7.85;;
55784;SDS011;41709;52.536;5.688;2023-04-08T03:37:27;13.15;;;8.32;;
55784;SDS011;41709;52.536;5.688;2023-04-08T03:39:53;12.90;;;8.55;;
55784;SDS011;41709;52.536;5.688;2023-04-08T03:42:19;13.02;;;8.23;;
55784;SDS011;41709;52.536;5.688;2023-04-08T03:44:45;10.77;;;7.38;;
55784;SDS011;41709;52.536;5.688;2023-04-08T03:47:10;13.35;;;7.90;;
55784;SDS011;41709;52.536;5.688;2023-04-08T03:49:36;12.50;;;7.65;;
55784;SDS011;41709;52.536;5.688;2023-04-08T03:52:01;12.60;;;8.45;;
55784;SDS011;41709;52.536;5.688;2023-04-08T03:54:27;11.15;;;7.35;;
55784;SDS011;41709;52.536;5.688;2023-04-08T03:56:53;11.13;;;7.50;;
55784;SDS011;41709;52.536;5.688;2023-04-08T03:59:19;14.38;;;8.48;;
55784;SDS011;41709;52.536;5.688;2023-04-08T04:01:44;11.20;;;7.75;;
55784;SDS011;41709;52.536;5.688;2023-04-08T04:04:11;11.07;;;7.90;;
55784;SDS011;41709;52.536;5.688;2023-04-08T04:06:37;9.65;;;7.25;;
55784;SDS011;41709;52.536;5.688;2023-04-08T04:09:02;13.07;;;8.70;;
55784;SDS011;41709;52.536;5.688;2023-04-08T04:11:28;11.07;;;7.70;;
55784;SDS011;41709;52.536;5.688;2023-04-08T04:13:53;10.57;;;7.25;;
55784;SDS011;41709;52.536;5.688;2023-04-08T04:16:19;12.40;;;7.57;;
55784;SDS011;41709;52.536;5.688;2023-04-08T04:18:44;12.13;;;8.43;;
55784;SDS011;41709;52.536;5.688;2023-04-08T04:21:10;12.88;;;8.52;;
55784;SDS011;41709;52.536;5.688;2023-04-08T04:23:35;12.02;;;7.63;;
55784;SDS011;41709;52.536;5.688;2023-04-08T04:26:01;11.20;;;8.38;;
55784;SDS011;41709;52.536;5.688;2023-04-08T04:28:31;13.55;;;8.10;;
55784;SDS011;41709;52.536;5.688;2023-04-08T04:30:57;10.15;;;7.85;;
55784;SDS011;41709;52.536;5.688;2023-04-08T04:33:22;10.93;;;8.10;;
55784;SDS011;41709;52.536;5.688;2023-04-08T04:35:48;14.70;;;8.60;;
55784;SDS011;41709;52.536;5.688;2023-04-08T04:38:13;11.45;;;7.97;;
55784;SDS011;41709;52.536;5.688;2023-04-08T04:40:40;10.50;;;7.80;;
55784;SDS011;41709;52.536;5.688;2023-04-08T04:43:05;12.27;;;8.43;;
55784;SDS011;41709;52.536;5.688;2023-04-08T04:45:31;19.50;;;8.95;;
55784;SDS011;41709;52.536;5.688;2023-04-08T04:47:56;12.65;;;9.00;;
55784;SDS011;41709;52.536;5.688;2023-04-08T04:50:22;13.95;;;8.60;;
55784;SDS011;41709;52.536;5.688;2023-04-08T04:52:48;12.98;;;8.05;;
55784;SDS011;41709;52.536;5.688;2023-04-08T04:55:13;11.30;;;8.27;;
55784;SDS011;41709;52.536;5.688;2023-04-08T04:57:40;14.82;;;9.48;;
55784;SDS011;41709;52.536;5.688;2023-04-08T05:00:06;15.13;;;8.13;;
55784;SDS011;41709;52.536;5.688;2023-04-08T05:02:32;17.35;;;9.85;;
55784;SDS011;41709;52.536;5.688;2023-04-08T05:04:58;14.70;;;7.97;;
55784;SDS011;41709;52.536;5.688;2023-04-08T05:07:23;13.02;;;9.07;;
55784;SDS011;41709;52.536;5.688;2023-04-08T05:09:49;13.35;;;9.18;;
55784;SDS011;41709;52.536;5.688;2023-04-08T05:12:14;17.10;;;10.00;;
55784;SDS011;41709;52.536;5.688;2023-04-08T05:14:40;16.58;;;9.50;;
55784;SDS011;41709;52.536;5.688;2023-04-08T05:17:06;12.65;;;9.63;;
55784;SDS011;41709;52.536;5.688;2023-04-08T05:19:31;14.48;;;9.82;;
55784;SDS011;41709;52.536;5.688;2023-04-08T05:21:57;14.57;;;10.57;;
55784;SDS011;41709;52.536;5.688;2023-04-08T05:24:22;15.65;;;10.00;;
55784;SDS011;41709;52.536;5.688;2023-04-08T05:26:48;13.15;;;9.65;;
55784;SDS011;41709;52.536;5.688;2023-04-08T05:29:17;13.38;;;9.60;;
55784;SDS011;41709;52.536;5.688;2023-04-08T05:31:43;14.82;;;10.77;;
55784;SDS011;41709;52.536;5.688;2023-04-08T05:34:09;15.48;;;10.65;;
55784;SDS011;41709;52.536;5.688;2023-04-08T05:36:35;14.93;;;10.50;;
55784;SDS011;41709;52.536;5.688;2023-04-08T05:39:01;13.23;;;9.50;;
55784;SDS011;41709;52.536;5.688;2023-04-08T05:41:26;16.35;;;10.27;;
55784;SDS011;41709;52.536;5.688;2023-04-08T05:43:52;15.23;;;10.10;;
55784;SDS011;41709;52.536;5.688;2023-04-08T05:46:17;15.88;;;10.73;;
55784;SDS011;41709;52.536;5.688;2023-04-08T05:48:43;16.92;;;10.40;;
55784;SDS011;41709;52.536;5.688;2023-04-08T05:51:15;17.35;;;10.43;;
55784;SDS011;41709;52.536;5.688;2023-04-08T05:53:41;17.13;;;11.02;;
55784;SDS011;41709;52.536;5.688;2023-04-08T05:56:09;15.13;;;9.93;;
55784;SDS011;41709;52.536;5.688;2023-04-08T05:58:35;15.07;;;11.10;;
55784;SDS011;41709;52.536;5.688;2023-04-08T06:01:00;17.55;;;11.63;;
55784;SDS011;41709;52.536;5.688;2023-04-08T06:03:26;15.90;;;11.63;;
55784;SDS011;41709;52.536;5.688;2023-04-08T06:05:51;17.08;;;11.10;;
55784;SDS011;41709;52.536;5.688;2023-04-08T06:08:17;17.17;;;11.57;;
55784;SDS011;41709;52.536;5.688;2023-04-08T06:10:48;19.70;;;12.65;;
55784;SDS011;41709;52.536;5.688;2023-04-08T06:13:15;15.13;;;10.93;;
55784;SDS011;41709;52.536;5.688;2023-04-08T06:15:40;14.07;;;10.45;;
55784;SDS011;41709;52.536;5.688;2023-04-08T06:18:06;18.20;;;12.00;;
55784;SDS011;41709;52.536;5.688;2023-04-08T06:20:32;17.33;;;12.20;;
55784;SDS011;41709;52.536;5.688;2023-04-08T06:22:57;18.33;;;12.07;;
55784;SDS011;41709;52.536;5.688;2023-04-08T06:25:23;18.63;;;12.25;;
55784;SDS011;41709;52.536;5.688;2023-04-08T06:27:48;20.15;;;11.55;;
55784;SDS011;41709;52.536;5.688;2023-04-08T06:30:14;16.48;;;11.77;;
55784;SDS011;41709;52.536;5.688;2023-04-08T06:32:40;18.40;;;13.18;;
55784;SDS011;41709;52.536;5.688;2023-04-08T06:35:06;19.48;;;12.50;;
55784;SDS011;41709;52.536;5.688;2023-04-08T06:37:32;17.60;;;11.75;;
55784;SDS011;41709;52.536;5.688;2023-04-08T06:40:02;14.60;;;11.73;;
55784;SDS011;41709;52.536;5.688;2023-04-08T06:42:28;13.77;;;11.00;;
55784;SDS011;41709;52.536;5.688;2023-04-08T06:44:54;17.85;;;11.25;;
55784;SDS011;41709;52.536;5.688;2023-04-08T06:47:20;18.00;;;11.82;;
55784;SDS011;41709;52.536;5.688;2023-04-08T06:49:46;17.60;;;11.63;;
55784;SDS011;41709;52.536;5.688;2023-04-08T06:52:12;17.27;;;11.57;;
55784;SDS011;41709;52.536;5.688;2023-04-08T06:54:37;16.38;;;10.95;;
55784;SDS011;41709;52.536;5.688;2023-04-08T06:57:03;17.15;;;12.18;;
55784;SDS011;41709;52.536;5.688;2023-04-08T06:59:28;17.33;;;12.10;;
55784;SDS011;41709;52.536;5.688;2023-04-08T07:01:54;15.65;;;12.10;;
55784;SDS011;41709;52.536;5.688;2023-04-08T07:04:20;14.40;;;10.32;;
55784;SDS011;41709;52.536;5.688;2023-04-08T07:06:45;14.30;;;10.77;;
55784;SDS011;41709;52.536;5.688;2023-04-08T07:09:11;14.82;;;10.70;;
55784;SDS011;41709;52.536;5.688;2023-04-08T07:11:36;15.60;;;11.00;;
55784;SDS011;41709;52.536;5.688;2023-04-08T07:14:02;17.98;;;11.25;;
55784;SDS011;41709;52.536;5.688;2023-04-08T07:16:27;16.55;;;11.27;;
55784;SDS011;41709;52.536;5.688;2023-04-08T07:18:53;16.48;;;11.73;;
55784;SDS011;41709;52.536;5.688;2023-04-08T07:21:18;15.30;;;11.30;;
55784;SDS011;41709;52.536;5.688;2023-04-08T07:23:44;14.45;;;11.00;;
55784;SDS011;41709;52.536;5.688;2023-04-08T07:26:09;15.75;;;11.25;;
55784;SDS011;41709;52.536;5.688;2023-04-08T07:28:35;16.58;;;11.82;;
55784;SDS011;41709;52.536;5.688;2023-04-08T07:31:10;14.48;;;11.05;;
55784;SDS011;41709;52.536;5.688;2023-04-08T07:33:37;17.10;;;11.88;;
55784;SDS011;41709;52.536;5.688;2023-04-08T07:36:03;18.45;;;13.52;;
55784;SDS011;41709;52.536;5.688;2023-04-08T07:38:29;22.90;;;13.98;;
55784;SDS011;41709;52.536;5.688;2023-04-08T07:40:54;18.73;;;12.82;;
55784;SDS011;41709;52.536;5.688;2023-04-08T07:43:20;19.88;;;14.45;;
55784;SDS011;41709;52.536;5.688;2023-04-08T07:45:45;21.30;;;15.30;;
55784;SDS011;41709;52.536;5.688;2023-04-08T07:48:11;24.95;;;16.30;;
55784;SDS011;41709;52.536;5.688;2023-04-08T07:50:37;21.88;;;16.50;;
55784;SDS011;41709;52.536;5.688;2023-04-08T07:53:02;23.10;;;15.23;;
55784;SDS011;41709;52.536;5.688;2023-04-08T07:55:32;25.13;;;16.10;;
55784;SDS011;41709;52.536;5.688;2023-04-08T07:58:00;24.95;;;15.98;;
55784;SDS011;41709;52.536;5.688;2023-04-08T08:00:26;25.58;;;15.40;;
55784;SDS011;41709;52.536;5.688;2023-04-08T08:02:54;26.10;;;16.85;;
55784;SDS011;41709;52.536;5.688;2023-04-08T08:05:20;22.15;;;15.57;;
55784;SDS011;41709;52.536;5.688;2023-04-08T08:07:45;22.90;;;15.63;;
55784;SDS011;41709;52.536;5.688;2023-04-08T08:10:11;24.80;;;16.63;;
55784;SDS011;41709;52.536;5.688;2023-04-08T08:12:37;23.30;;;15.52;;
55784;SDS011;41709;52.536;5.688;2023-04-08T08:15:03;22.95;;;15.63;;
55784;SDS011;41709;52.536;5.688;2023-04-08T08:17:29;23.90;;;15.60;;
55784;SDS011;41709;52.536;5.688;2023-04-08T08:19:57;23.98;;;15.52;;
55784;SDS011;41709;52.536;5.688;2023-04-08T08:22:23;24.27;;;16.13;;
55784;SDS011;41709;52.536;5.688;2023-04-08T08:24:53;20.27;;;14.15;;
55784;SDS011;41709;52.536;5.688;2023-04-08T08:27:20;21.00;;;15.18;;
55784;SDS011;41709;52.536;5.688;2023-04-08T08:29:46;23.35;;;15.82;;
55784;SDS011;41709;52.536;5.688;2023-04-08T08:32:11;26.92;;;16.10;;
55784;SDS011;41709;52.536;5.688;2023-04-08T08:34:37;31.95;;;18.63;;
55784;SDS011;41709;52.536;5.688;2023-04-08T08:37:03;26.92;;;16.75;;
55784;SDS011;41709;52.536;5.688;2023-04-08T08:39:28;23.20;;;15.40;;
55784;SDS011;41709;52.536;5.688;2023-04-08T08:41:54;20.58;;;15.38;;
55784;SDS011;41709;52.536;5.688;2023-04-08T08:44:20;21.50;;;14.95;;
55784;SDS011;41709;52.536;5.688;2023-04-08T08:46:46;23.35;;;15.00;;
55784;SDS011;41709;52.536;5.688;2023-04-08T08:49:12;18.25;;;12.13;;
55784;SDS011;41709;52.536;5.688;2023-04-08T08:51:41;16.08;;;12.45;;
55784;SDS011;41709;52.536;5.688;2023-04-08T08:54:10;16.75;;;12.13;;
55784;SDS011;41709;52.536;5.688;2023-04-08T08:56:35;18.27;;;11.75;;
55784;SDS011;41709;52.536;5.688;2023-04-08T08:59:01;15.75;;;12.18;;
55784;SDS011;41709;52.536;5.688;2023-04-08T09:01:31;13.32;;;10.00;;
55784;SDS011;41709;52.536;5.688;2023-04-08T09:06:33;18.92;;;13.20;;
55784;SDS011;41709;52.536;5.688;2023-04-08T09:09:00;20.50;;;13.43;;
55784;SDS011;41709;52.536;5.688;2023-04-08T09:11:26;24.48;;;16.60;;
55784;SDS011;41709;52.536;5.688;2023-04-08T09:13:52;24.88;;;13.88;;
55784;SDS011;41709;52.536;5.688;2023-04-08T09:16:18;22.92;;;15.52;;
55784;SDS011;41709;52.536;5.688;2023-04-08T09:18:44;21.73;;;14.18;;
55784;SDS011;41709;52.536;5.688;2023-04-08T09:21:11;17.77;;;13.13;;
55784;SDS011;41709;52.536;5.688;2023-04-08T09:26:11;18.85;;;12.05;;
55784;SDS011;41709;52.536;5.688;2023-04-08T09:28:42;17.40;;;13.18;;
55784;SDS011;41709;52.536;5.688;2023-04-08T09:31:30;17.42;;;12.70;;
55784;SDS011;41709;52.536;5.688;2023-04-08T09:33:59;14.88;;;11.15;;
55784;SDS011;41709;52.536;5.688;2023-04-08T09:36:28;15.18;;;10.40;;
55784;SDS011;41709;52.536;5.688;2023-04-08T09:38:54;15.57;;;12.30;;
55784;SDS011;41709;52.536;5.688;2023-04-08T09:41:21;13.10;;;9.98;;
55784;SDS011;41709;52.536;5.688;2023-04-08T09:43:48;14.00;;;10.98;;
55784;SDS011;41709;52.536;5.688;2023-04-08T09:46:17;14.48;;;10.32;;
55784;SDS011;41709;52.536;5.688;2023-04-08T09:48:48;10.10;;;8.10;;
55784;SDS011;41709;52.536;5.688;2023-04-08T09:51:16;14.40;;;9.55;;
55784;SDS011;41709;52.536;5.688;2023-04-08T09:53:47;12.20;;;9.25;;
55784;SDS011;41709;52.536;5.688;2023-04-08T09:56:16;12.27;;;9.32;;
55784;SDS011;41709;52.536;5.688;2023-04-08T10:01:15;13.95;;;10.55;;
55784;SDS011;41709;52.536;5.688;2023-04-08T10:03:47;15.13;;;10.90;;
55784;SDS011;41709;52.536;5.688;2023-04-08T10:06:15;14.88;;;11.32;;
55784;SDS011;41709;52.536;5.688;2023-04-08T10:08:41;16.40;;;11.35;;
55784;SDS011;41709;52.536;5.688;2023-04-08T10:11:08;14.20;;;10.60;;
55784;SDS011;41709;52.536;5.688;2023-04-08T10:13:34;17.90;;;12.57;;
55784;SDS011;41709;52.536;5.688;2023-04-08T10:18:55;16.48;;;11.75;;
55784;SDS011;41709;52.536;5.688;2023-04-08T10:21:34;15.70;;;11.07;;
55784;SDS011;41709;52.536;5.688;2023-04-08T10:24:10;14.23;;;11.18;;
55784;SDS011;41709;52.536;5.688;2023-04-08T10:26:39;15.18;;;11.15;;
55784;SDS011;41709;52.536;5.688;2023-04-08T10:31:45;14.45;;;10.77;;
55784;SDS011;41709;52.536;5.688;2023-04-08T10:34:18;15.15;;;10.98;;
55784;SDS011;41709;52.536;5.688;2023-04-08T10:36:51;14.18;;;10.77;;
55784;SDS011;41709;52.536;5.688;2023-04-08T10:39:19;17.33;;;10.93;;
55784;SDS011;41709;52.536;5.688;2023-04-08T10:41:46;13.38;;;9.88;;
55784;SDS011;41709;52.536;5.688;2023-04-08T10:46:46;16.02;;;11.35;;
55784;SDS011;41709;52.536;5.688;2023-04-08T10:49:12;12.77;;;9.55;;
55784;SDS011;41709;52.536;5.688;2023-04-08T10:51:38;13.55;;;9.23;;
55784;SDS011;41709;52.536;5.688;2023-04-08T10:54:06;11.57;;;9.18;;
55784;SDS011;41709;52.536;5.688;2023-04-08T10:56:42;16.20;;;10.18;;
55784;SDS011;41709;52.536;5.688;2023-04-08T10:59:09;12.27;;;9.15;;
55784;SDS011;41709;52.536;5.688;2023-04-08T11:01:39;19.85;;;11.77;;
55784;SDS011;41709;52.536;5.688;2023-04-08T11:04:12;15.93;;;11.63;;
55784;SDS011;41709;52.536;5.688;2023-04-08T11:06:38;17.15;;;12.40;;
55784;SDS011;41709;52.536;5.688;2023-04-08T11:09:06;20.80;;;13.13;;
55784;SDS011;41709;52.536;5.688;2023-04-08T11:11:32;23.20;;;14.45;;
55784;SDS011;41709;52.536;5.688;2023-04-08T11:13:58;19.75;;;11.85;;
55784;SDS011;41709;52.536;5.688;2023-04-08T11:16:24;19.80;;;12.15;;
55784;SDS011;41709;52.536;5.688;2023-04-08T11:18:51;20.33;;;12.43;;
55784;SDS011;41709;52.536;5.688;2023-04-08T11:21:18;19.13;;;13.27;;
55784;SDS011;41709;52.536;5.688;2023-04-08T11:23:43;20.35;;;12.82;;
55784;SDS011;41709;52.536;5.688;2023-04-08T11:26:09;23.63;;;14.23;;
55784;SDS011;41709;52.536;5.688;2023-04-08T11:28:35;23.77;;;15.45;;
55784;SDS011;41709;52.536;5.688;2023-04-08T11:31:01;23.55;;;16.35;;
55784;SDS011;41709;52.536;5.688;2023-04-08T11:33:31;26.30;;;15.75;;
55784;SDS011;41709;52.536;5.688;2023-04-08T11:35:57;23.05;;;15.13;;
55784;SDS011;41709;52.536;5.688;2023-04-08T11:38:26;21.10;;;14.27;;
55784;SDS011;41709;52.536;5.688;2023-04-08T11:40:58;20.92;;;13.52;;
55784;SDS011;41709;52.536;5.688;2023-04-08T11:43:24;18.25;;;12.68;;
55784;SDS011;41709;52.536;5.688;2023-04-08T11:45:50;16.00;;;11.40;;
55784;SDS011;41709;52.536;5.688;2023-04-08T11:48:16;18.23;;;12.32;;
55784;SDS011;41709;52.536;5.688;2023-04-08T11:50:42;15.05;;;10.73;;
55784;SDS011;41709;52.536;5.688;2023-04-08T11:53:23;16.35;;;10.68;;
55784;SDS011;41709;52.536;5.688;2023-04-08T11:55:50;17.92;;;10.88;;
55784;SDS011;41709;52.536;5.688;2023-04-08T11:58:16;15.32;;;10.10;;
55784;SDS011;41709;52.536;5.688;2023-04-08T12:00:41;20.85;;;11.68;;
55784;SDS011;41709;52.536;5.688;2023-04-08T12:03:07;16.55;;;10.75;;
55784;SDS011;41709;52.536;5.688;2023-04-08T12:05:34;17.67;;;12.02;;
55784;SDS011;41709;52.536;5.688;2023-04-08T12:08:00;18.85;;;13.05;;
55784;SDS011;41709;52.536;5.688;2023-04-08T12:10:26;17.38;;;11.82;;
55784;SDS011;41709;52.536;5.688;2023-04-08T12:12:51;17.60;;;11.73;;
55784;SDS011;41709;52.536;5.688;2023-04-08T12:15:17;19.85;;;13.57;;
55784;SDS011;41709;52.536;5.688;2023-04-08T12:17:43;16.05;;;12.00;;
55784;SDS011;41709;52.536;5.688;2023-04-08T12:20:09;19.05;;;12.93;;
55784;SDS011;41709;52.536;5.688;2023-04-08T12:22:35;19.38;;;13.23;;
55784;SDS011;41709;52.536;5.688;2023-04-08T12:25:01;17.88;;;13.30;;
55784;SDS011;41709;52.536;5.688;2023-04-08T12:27:31;16.67;;;13.55;;
55784;SDS011;41709;52.536;5.688;2023-04-08T12:30:00;18.35;;;13.48;;
55784;SDS011;41709;52.536;5.688;2023-04-08T12:32:27;22.75;;;14.07;;
55784;SDS011;41709;52.536;5.688;2023-04-08T12:34:52;19.70;;;13.95;;
55784;SDS011;41709;52.536;5.688;2023-04-08T12:37:18;18.95;;;14.25;;
55784;SDS011;41709;52.536;5.688;2023-04-08T12:39:44;21.85;;;15.55;;
55784;SDS011;41709;52.536;5.688;2023-04-08T12:42:10;23.77;;;16.15;;
55784;SDS011;41709;52.536;5.688;2023-04-08T12:44:36;24.73;;;16.52;;
55784;SDS011;41709;52.536;5.688;2023-04-08T12:47:01;22.23;;;14.75;;
55784;SDS011;41709;52.536;5.688;2023-04-08T12:49:27;20.13;;;14.77;;
55784;SDS011;41709;52.536;5.688;2023-04-08T12:51:52;20.20;;;15.40;;
55784;SDS011;41709;52.536;5.688;2023-04-08T12:54:19;22.27;;;14.63;;
55784;SDS011;41709;52.536;5.688;2023-04-08T12:56:45;20.52;;;15.35;;
55784;SDS011;41709;52.536;5.688;2023-04-08T12:59:12;20.17;;;15.10;;
55784;SDS011;41709;52.536;5.688;2023-04-08T13:01:38;21.67;;;15.00;;
55784;SDS011;41709;52.536;5.688;2023-04-08T13:04:03;18.27;;;13.82;;
55784;SDS011;41709;52.536;5.688;2023-04-08T13:06:29;20.15;;;14.30;;
55784;SDS011;41709;52.536;5.688;2023-04-08T13:08:55;21.13;;;14.98;;
55784;SDS011;41709;52.536;5.688;2023-04-08T13:11:21;21.17;;;15.38;;
55784;SDS011;41709;52.536;5.688;2023-04-08T13:13:47;21.05;;;15.13;;
55784;SDS011;41709;52.536;5.688;2023-04-08T13:16:13;22.05;;;15.88;;
55784;SDS011;41709;52.536;5.688;2023-04-08T13:18:39;20.35;;;15.57;;
55784;SDS011;41709;52.536;5.688;2023-04-08T13:21:06;21.85;;;15.52;;
55784;SDS011;41709;52.536;5.688;2023-04-08T13:23:32;23.27;;;16.95;;
55784;SDS011;41709;52.536;5.688;2023-04-08T13:25:57;22.67;;;14.52;;
55784;SDS011;41709;52.536;5.688;2023-04-08T13:28:23;19.55;;;15.88;;
55784;SDS011;41709;52.536;5.688;2023-04-08T13:30:49;26.33;;;16.50;;
55784;SDS011;41709;52.536;5.688;2023-04-08T13:33:15;22.70;;;16.77;;
55784;SDS011;41709;52.536;5.688;2023-04-08T13:35:41;21.85;;;15.93;;
55784;SDS011;41709;52.536;5.688;2023-04-08T13:38:06;21.58;;;16.75;;
55784;SDS011;41709;52.536;5.688;2023-04-08T13:40:32;22.05;;;16.33;;
55784;SDS011;41709;52.536;5.688;2023-04-08T13:42:58;21.27;;;15.10;;
55784;SDS011;41709;52.536;5.688;2023-04-08T13:45:23;22.33;;;15.52;;
55784;SDS011;41709;52.536;5.688;2023-04-08T13:47:49;24.45;;;16.08;;
55784;SDS011;41709;52.536;5.688;2023-04-08T13:50:14;21.63;;;15.88;;
55784;SDS011;41709;52.536;5.688;2023-04-08T13:52:40;19.45;;;15.40;;
55784;SDS011;41709;52.536;5.688;2023-04-08T13:55:06;20.08;;;14.90;;
55784;SDS011;41709;52.536;5.688;2023-04-08T13:57:32;20.35;;;14.57;;
55784;SDS011;41709;52.536;5.688;2023-04-08T13:59:58;20.15;;;15.07;;
55784;SDS011;41709;52.536;5.688;2023-04-08T14:02:23;17.38;;;13.40;;
55784;SDS011;41709;52.536;5.688;2023-04-08T14:04:49;17.95;;;14.35;;
55784;SDS011;41709;52.536;5.688;2023-04-08T14:07:15;18.45;;;14.55;;
55784;SDS011;41709;52.536;5.688;2023-04-08T14:09:41;19.30;;;14.23;;
55784;SDS011;41709;52.536;5.688;2023-04-08T14:12:06;19.27;;;14.23;;
55784;SDS011;41709;52.536;5.688;2023-04-08T14:14:32;18.13;;;13.50;;
55784;SDS011;41709;52.536;5.688;2023-04-08T14:16:57;20.08;;;13.82;;
55784;SDS011;41709;52.536;5.688;2023-04-08T14:19:23;15.57;;;12.13;;
55784;SDS011;41709;52.536;5.688;2023-04-08T14:21:49;19.38;;;13.63;;
55784;SDS011;41709;52.536;5.688;2023-04-08T14:24:14;16.45;;;12.45;;
55784;SDS011;41709;52.536;5.688;2023-04-08T14:26:40;17.02;;;12.60;;
55784;SDS011;41709;52.536;5.688;2023-04-08T14:29:06;16.88;;;12.75;;
55784;SDS011;41709;52.536;5.688;2023-04-08T14:31:32;14.10;;;11.73;;
55784;SDS011;41709;52.536;5.688;2023-04-08T14:33:59;13.80;;;11.48;;
55784;SDS011;41709;52.536;5.688;2023-04-08T14:36:25;14.35;;;11.38;;
55784;SDS011;41709;52.536;5.688;2023-04-08T14:38:52;16.55;;;11.45;;
55784;SDS011;41709;52.536;5.688;2023-04-08T14:41:18;14.07;;;11.63;;
55784;SDS011;41709;52.536;5.688;2023-04-08T14:43:43;15.85;;;12.65;;
55784;SDS011;41709;52.536;5.688;2023-04-08T14:46:09;16.75;;;12.68;;